sensor_id;sensor_type;location;lat;lon;timestamp;P1;durP1;ratioP1;P2;durP2;ratioP2
39846;SDS011;25517;52.422;10.782;2024-01-10T00:01:39;22.95;;;9.90;;
39846;SDS011;25517;52.422;10.782;2024-01-10T00:04:05;26.63;;;10.90;;
39846;SDS011;25517;52.422;10.782;2024-01-10T00:06:30;24.58;;;10.98;;
39846;SDS011;25517;52.422;10.782;2024-01-10T00:08:56;21.02;;;10.20;;
39846;SDS011;25517;52.422;10.782;2024-01-10T00:11:21;27.27;;;12.05;;
39846;SDS011;25517;52.422;10.782;2024-01-10T00:13:47;24.05;;;10.27;;
39846;SDS011;25517;52.422;10.782;2024-01-10T00:16:13;25.92;;;11.63;;
39846;SDS011;25517;52.422;10.782;2024-01-10T00:18:39;34.17;;;12.55;;
39846;SDS011;25517;52.422;10.782;2024-01-10T00:21:05;19.50;;;10.18;;
39846;SDS011;25517;52.422;10.782;2024-01-10T00:23:31;26.90;;;11.52;;
39846;SDS011;25517;52.422;10.782;2024-01-10T00:25:57;26.52;;;12.43;;
39846;SDS011;25517;52.422;10.782;2024-01-10T00:28:23;26.58;;;11.73;;
39846;SDS011;25517;52.422;10.782;2024-01-10T00:30:48;23.27;;;10.77;;
39846;SDS011;25517;52.422;10.782;2024-01-10T00:33:14;29.08;;;11.48;;
39846;SDS011;25517;52.422;10.782;2024-01-10T00:35:40;23.27;;;10.23;;
39846;SDS011;25517;52.422;10.782;2024-01-10T00:38:06;24.80;;;11.20;;
39846;SDS011;25517;52.422;10.782;2024-01-10T00:40:31;26.15;;;10.10;;
39846;SDS011;25517;52.422;10.782;2024-01-10T00:42:57;25.30;;;11.45;;
39846;SDS011;25517;52.422;10.782;2024-01-10T00:45:22;25.13;;;11.32;;
39846;SDS011;25517;52.422;10.782;2024-01-10T00:47:49;26.48;;;11.43;;
39846;SDS011;25517;52.422;10.782;2024-01-10T00:50:14;21.35;;;10.40;;
39846;SDS011;25517;52.422;10.782;2024-01-10T00:52:41;24.38;;;11.02;;
39846;SDS011;25517;52.422;10.782;2024-01-10T00:55:07;26.38;;;10.65;;
39846;SDS011;25517;52.422;10.782;2024-01-10T00:57:33;24.98;;;11.40;;
39846;SDS011;25517;52.422;10.782;2024-01-10T00:59:59;25.67;;;11.55;;
39846;SDS011;25517;52.422;10.782;2024-01-10T01:02:24;23.83;;;9.65;;
39846;SDS011;25517;52.422;10.782;2024-01-10T01:04:50;22.05;;;11.38;;
39846;SDS011;25517;52.422;10.782;2024-01-10T01:07:15;20.98;;;9.55;;
39846;SDS011;25517;52.422;10.782;2024-01-10T01:09:41;23.17;;;10.30;;
39846;SDS011;25517;52.422;10.782;2024-01-10T01:12:06;28.83;;;11.25;;
39846;SDS011;25517;52.422;10.782;2024-01-10T01:14:32;29.02;;;11.65;;
39846;SDS011;25517;52.422;10.782;2024-01-10T01:16:58;24.83;;;10.52;;
39846;SDS011;25517;52.422;10.782;2024-01-10T01:19:23;26.02;;;12.52;;
39846;SDS011;25517;52.422;10.782;2024-01-10T01:21:49;26.27;;;11.52;;
39846;SDS011;25517;52.422;10.782;2024-01-10T01:24:14;26.85;;;11.18;;
39846;SDS011;25517;52.422;10.782;2024-01-10T01:26:40;24.08;;;12.10;;
39846;SDS011;25517;52.422;10.782;2024-01-10T01:29:06;28.45;;;11.55;;
39846;SDS011;25517;52.422;10.782;2024-01-10T01:31:33;30.23;;;12.27;;
39846;SDS011;25517;52.422;10.782;2024-01-10T01:33:59;24.23;;;10.68;;
39846;SDS011;25517;52.422;10.782;2024-01-10T01:36:24;25.80;;;11.27;;
39846;SDS011;25517;52.422;10.782;2024-01-10T01:38:50;28.77;;;12.27;;
39846;SDS011;25517;52.422;10.782;2024-01-10T01:41:16;32.75;;;12.70;;
39846;SDS011;25517;52.422;10.782;2024-01-10T01:43:42;27.25;;;11.63;;
39846;SDS011;25517;52.422;10.782;2024-01-10T01:46:08;32.47;;;13.45;;
39846;SDS011;25517;52.422;10.782;2024-01-10T01:48:34;31.08;;;13.00;;
39846;SDS011;25517;52.422;10.782;2024-01-10T01:51:02;31.63;;;13.13;;
39846;SDS011;25517;52.422;10.782;2024-01-10T01:53:30;30.90;;;13.85;;
39846;SDS011;25517;52.422;10.782;2024-01-10T01:55:56;29.73;;;13.00;;
39846;SDS011;25517;52.422;10.782;2024-01-10T01:58:25;27.65;;;12.73;;
39846;SDS011;25517;52.422;10.782;2024-01-10T02:00:51;36.85;;;13.27;;
39846;SDS011;25517;52.422;10.782;2024-01-10T02:03:17;32.60;;;14.45;;
39846;SDS011;25517;52.422;10.782;2024-01-10T02:05:42;37.05;;;13.63;;
39846;SDS011;25517;52.422;10.782;2024-01-10T02:08:08;23.88;;;11.23;;
39846;SDS011;25517;52.422;10.782;2024-01-10T02:10:34;36.22;;;13.57;;
39846;SDS011;25517;52.422;10.782;2024-01-10T02:13:00;32.42;;;14.65;;
39846;SDS011;25517;52.422;10.782;2024-01-10T02:15:26;30.60;;;13.05;;
39846;SDS011;25517;52.422;10.782;2024-01-10T02:17:52;33.00;;;13.43;;
39846;SDS011;25517;52.422;10.782;2024-01-10T02:20:17;29.63;;;13.27;;
39846;SDS011;25517;52.422;10.782;2024-01-10T02:22:43;31.55;;;13.82;;
39846;SDS011;25517;52.422;10.782;2024-01-10T02:25:10;33.38;;;13.23;;
39846;SDS011;25517;52.422;10.782;2024-01-10T02:27:36;34.35;;;14.02;;
39846;SDS011;25517;52.422;10.782;2024-01-10T02:30:03;35.53;;;14.60;;
39846;SDS011;25517;52.422;10.782;2024-01-10T02:32:29;35.78;;;14.30;;
39846;SDS011;25517;52.422;10.782;2024-01-10T02:34:55;35.17;;;15.75;;
39846;SDS011;25517;52.422;10.782;2024-01-10T02:37:20;36.72;;;14.85;;
39846;SDS011;25517;52.422;10.782;2024-01-10T02:39:46;32.72;;;14.35;;
39846;SDS011;25517;52.422;10.782;2024-01-10T02:42:12;37.67;;;14.63;;
39846;SDS011;25517;52.422;10.782;2024-01-10T02:44:37;31.00;;;13.43;;
39846;SDS011;25517;52.422;10.782;2024-01-10T02:47:03;38.72;;;14.85;;
39846;SDS011;25517;52.422;10.782;2024-01-10T02:49:29;31.95;;;13.60;;
39846;SDS011;25517;52.422;10.782;2024-01-10T02:51:55;30.05;;;14.20;;
39846;SDS011;25517;52.422;10.782;2024-01-10T02:54:20;33.08;;;14.57;;
39846;SDS011;25517;52.422;10.782;2024-01-10T02:56:46;26.63;;;13.80;;
39846;SDS011;25517;52.422;10.782;2024-01-10T02:59:11;34.67;;;13.45;;
39846;SDS011;25517;52.422;10.782;2024-01-10T03:01:37;32.67;;;13.82;;
39846;SDS011;25517;52.422;10.782;2024-01-10T03:04:03;36.78;;;14.00;;
39846;SDS011;25517;52.422;10.782;2024-01-10T03:06:28;34.13;;;14.75;;
39846;SDS011;25517;52.422;10.782;2024-01-10T03:08:54;31.88;;;13.45;;
39846;SDS011;25517;52.422;10.782;2024-01-10T03:11:20;34.85;;;14.02;;
39846;SDS011;25517;52.422;10.782;2024-01-10T03:13:46;38.05;;;15.40;;
39846;SDS011;25517;52.422;10.782;2024-01-10T03:16:13;40.65;;;16.25;;
39846;SDS011;25517;52.422;10.782;2024-01-10T03:18:39;33.75;;;15.73;;
39846;SDS011;25517;52.422;10.782;2024-01-10T03:21:05;37.25;;;14.90;;
39846;SDS011;25517;52.422;10.782;2024-01-10T03:23:30;37.35;;;15.55;;
39846;SDS011;25517;52.422;10.782;2024-01-10T03:25:56;35.60;;;16.40;;
39846;SDS011;25517;52.422;10.782;2024-01-10T03:28:22;36.83;;;16.55;;
39846;SDS011;25517;52.422;10.782;2024-01-10T03:30:48;39.70;;;16.48;;
39846;SDS011;25517;52.422;10.782;2024-01-10T03:33:14;39.83;;;16.55;;
39846;SDS011;25517;52.422;10.782;2024-01-10T03:35:40;38.45;;;17.30;;
39846;SDS011;25517;52.422;10.782;2024-01-10T03:38:06;34.92;;;15.50;;
39846;SDS011;25517;52.422;10.782;2024-01-10T03:40:32;40.90;;;16.83;;
39846;SDS011;25517;52.422;10.782;2024-01-10T03:42:58;40.30;;;16.70;;
39846;SDS011;25517;52.422;10.782;2024-01-10T03:45:23;39.05;;;15.93;;
39846;SDS011;25517;52.422;10.782;2024-01-10T03:47:49;41.55;;;15.57;;
39846;SDS011;25517;52.422;10.782;2024-01-10T03:50:19;41.92;;;17.15;;
39846;SDS011;25517;52.422;10.782;2024-01-10T03:52:45;33.25;;;16.85;;
39846;SDS011;25517;52.422;10.782;2024-01-10T03:55:14;38.42;;;17.58;;
39846;SDS011;25517;52.422;10.782;2024-01-10T03:57:40;35.60;;;15.27;;
39846;SDS011;25517;52.422;10.782;2024-01-10T04:00:07;37.55;;;15.55;;
39846;SDS011;25517;52.422;10.782;2024-01-10T04:02:33;39.40;;;15.15;;
39846;SDS011;25517;52.422;10.782;2024-01-10T04:05:00;39.88;;;16.95;;
39846;SDS011;25517;52.422;10.782;2024-01-10T04:07:27;36.08;;;15.63;;
39846;SDS011;25517;52.422;10.782;2024-01-10T04:09:53;33.42;;;15.13;;
39846;SDS011;25517;52.422;10.782;2024-01-10T04:12:18;33.92;;;14.15;;
39846;SDS011;25517;52.422;10.782;2024-01-10T04:14:44;33.70;;;15.55;;
39846;SDS011;25517;52.422;10.782;2024-01-10T04:17:09;41.10;;;16.75;;
39846;SDS011;25517;52.422;10.782;2024-01-10T04:19:35;40.08;;;16.92;;
39846;SDS011;25517;52.422;10.782;2024-01-10T04:22:01;44.33;;;17.35;;
39846;SDS011;25517;52.422;10.782;2024-01-10T04:24:26;35.35;;;15.95;;
39846;SDS011;25517;52.422;10.782;2024-01-10T04:26:52;37.45;;;16.25;;
39846;SDS011;25517;52.422;10.782;2024-01-10T04:29:17;41.22;;;15.93;;
39846;SDS011;25517;52.422;10.782;2024-01-10T04:31:43;40.25;;;16.38;;
39846;SDS011;25517;52.422;10.782;2024-01-10T04:34:08;38.70;;;15.13;;
39846;SDS011;25517;52.422;10.782;2024-01-10T04:36:34;39.90;;;16.25;;
39846;SDS011;25517;52.422;10.782;2024-01-10T04:38:59;38.58;;;15.15;;
39846;SDS011;25517;52.422;10.782;2024-01-10T04:41:25;34.72;;;14.82;;
39846;SDS011;25517;52.422;10.782;2024-01-10T04:43:51;34.05;;;14.88;;
39846;SDS011;25517;52.422;10.782;2024-01-10T04:46:17;33.05;;;14.63;;
39846;SDS011;25517;52.422;10.782;2024-01-10T04:48:42;40.15;;;15.45;;
39846;SDS011;25517;52.422;10.782;2024-01-10T04:51:08;37.97;;;15.57;;
39846;SDS011;25517;52.422;10.782;2024-01-10T04:53:33;37.35;;;15.63;;
39846;SDS011;25517;52.422;10.782;2024-01-10T04:55:59;35.70;;;16.75;;
39846;SDS011;25517;52.422;10.782;2024-01-10T04:58:25;41.72;;;17.23;;
39846;SDS011;25517;52.422;10.782;2024-01-10T05:00:50;40.35;;;17.77;;
39846;SDS011;25517;52.422;10.782;2024-01-10T05:03:16;35.25;;;15.32;;
39846;SDS011;25517;52.422;10.782;2024-01-10T05:05:41;40.55;;;17.38;;
39846;SDS011;25517;52.422;10.782;2024-01-10T05:08:07;39.22;;;16.52;;
39846;SDS011;25517;52.422;10.782;2024-01-10T05:10:33;44.70;;;17.13;;
39846;SDS011;25517;52.422;10.782;2024-01-10T05:12:58;53.85;;;23.35;;
39846;SDS011;25517;52.422;10.782;2024-01-10T05:15:24;46.17;;;19.10;;
39846;SDS011;25517;52.422;10.782;2024-01-10T05:17:50;43.67;;;18.45;;
39846;SDS011;25517;52.422;10.782;2024-01-10T05:20:15;43.50;;;18.17;;
39846;SDS011;25517;52.422;10.782;2024-01-10T05:22:41;49.00;;;20.02;;
39846;SDS011;25517;52.422;10.782;2024-01-10T05:25:07;44.08;;;18.25;;
39846;SDS011;25517;52.422;10.782;2024-01-10T05:27:33;48.35;;;18.95;;
39846;SDS011;25517;52.422;10.782;2024-01-10T05:29:58;42.63;;;18.52;;
39846;SDS011;25517;52.422;10.782;2024-01-10T05:32:24;48.72;;;20.15;;
39846;SDS011;25517;52.422;10.782;2024-01-10T05:34:51;50.63;;;20.63;;
39846;SDS011;25517;52.422;10.782;2024-01-10T05:37:17;47.00;;;19.95;;
39846;SDS011;25517;52.422;10.782;2024-01-10T05:39:42;42.25;;;18.95;;
39846;SDS011;25517;52.422;10.782;2024-01-10T05:42:08;53.35;;;21.33;;
39846;SDS011;25517;52.422;10.782;2024-01-10T05:44:33;49.20;;;18.42;;
39846;SDS011;25517;52.422;10.782;2024-01-10T05:46:59;41.22;;;18.55;;
39846;SDS011;25517;52.422;10.782;2024-01-10T05:49:25;43.05;;;18.23;;
39846;SDS011;25517;52.422;10.782;2024-01-10T05:51:51;39.15;;;18.38;;
39846;SDS011;25517;52.422;10.782;2024-01-10T05:54:17;44.78;;;19.42;;
39846;SDS011;25517;52.422;10.782;2024-01-10T05:56:43;57.33;;;22.42;;
39846;SDS011;25517;52.422;10.782;2024-01-10T05:59:08;59.72;;;20.83;;
39846;SDS011;25517;52.422;10.782;2024-01-10T06:01:36;60.03;;;23.33;;
39846;SDS011;25517;52.422;10.782;2024-01-10T06:04:03;46.20;;;19.67;;
39846;SDS011;25517;52.422;10.782;2024-01-10T06:06:29;58.30;;;19.50;;
39846;SDS011;25517;52.422;10.782;2024-01-10T06:08:54;51.88;;;19.92;;
39846;SDS011;25517;52.422;10.782;2024-01-10T06:11:20;47.00;;;19.85;;
39846;SDS011;25517;52.422;10.782;2024-01-10T06:13:45;52.33;;;20.20;;
39846;SDS011;25517;52.422;10.782;2024-01-10T06:16:11;50.53;;;20.10;;
39846;SDS011;25517;52.422;10.782;2024-01-10T06:18:38;54.45;;;21.45;;
39846;SDS011;25517;52.422;10.782;2024-01-10T06:21:04;52.58;;;20.92;;
39846;SDS011;25517;52.422;10.782;2024-01-10T06:23:29;47.58;;;20.38;;
39846;SDS011;25517;52.422;10.782;2024-01-10T06:25:55;47.70;;;18.88;;
39846;SDS011;25517;52.422;10.782;2024-01-10T06:28:20;46.92;;;19.95;;
39846;SDS011;25517;52.422;10.782;2024-01-10T06:30:46;51.13;;;20.25;;
39846;SDS011;25517;52.422;10.782;2024-01-10T06:33:12;56.20;;;22.58;;
39846;SDS011;25517;52.422;10.782;2024-01-10T06:35:38;53.00;;;20.70;;
39846;SDS011;25517;52.422;10.782;2024-01-10T06:38:04;53.03;;;23.95;;
39846;SDS011;25517;52.422;10.782;2024-01-10T06:40:29;57.53;;;21.33;;
39846;SDS011;25517;52.422;10.782;2024-01-10T06:42:55;54.45;;;22.58;;
39846;SDS011;25517;52.422;10.782;2024-01-10T06:45:21;58.28;;;22.83;;
39846;SDS011;25517;52.422;10.782;2024-01-10T06:47:47;46.25;;;20.55;;
39846;SDS011;25517;52.422;10.782;2024-01-10T06:50:12;52.00;;;21.65;;
39846;SDS011;25517;52.422;10.782;2024-01-10T06:52:38;50.58;;;21.05;;
39846;SDS011;25517;52.422;10.782;2024-01-10T06:55:04;59.40;;;23.05;;
39846;SDS011;25517;52.422;10.782;2024-01-10T06:57:30;53.00;;;21.88;;
39846;SDS011;25517;52.422;10.782;2024-01-10T06:59:55;57.35;;;24.38;;
39846;SDS011;25517;52.422;10.782;2024-01-10T07:02:22;48.50;;;20.10;;
39846;SDS011;25517;52.422;10.782;2024-01-10T07:04:48;56.13;;;23.67;;
39846;SDS011;25517;52.422;10.782;2024-01-10T07:07:14;49.47;;;21.75;;
39846;SDS011;25517;52.422;10.782;2024-01-10T07:09:40;54.20;;;22.67;;
39846;SDS011;25517;52.422;10.782;2024-01-10T07:12:06;53.83;;;22.05;;
39846;SDS011;25517;52.422;10.782;2024-01-10T07:14:32;58.35;;;21.05;;
39846;SDS011;25517;52.422;10.782;2024-01-10T07:16:58;60.15;;;21.83;;
39846;SDS011;25517;52.422;10.782;2024-01-10T07:19:23;57.75;;;22.55;;
39846;SDS011;25517;52.422;10.782;2024-01-10T07:21:49;59.42;;;24.33;;
39846;SDS011;25517;52.422;10.782;2024-01-10T07:24:15;55.13;;;22.67;;
39846;SDS011;25517;52.422;10.782;2024-01-10T07:26:40;54.47;;;21.73;;
39846;SDS011;25517;52.422;10.782;2024-01-10T07:29:06;57.15;;;23.98;;
39846;SDS011;25517;52.422;10.782;2024-01-10T07:31:33;56.30;;;21.65;;
39846;SDS011;25517;52.422;10.782;2024-01-10T07:33:59;62.25;;;24.02;;
39846;SDS011;25517;52.422;10.782;2024-01-10T07:36:25;51.97;;;22.38;;
39846;SDS011;25517;52.422;10.782;2024-01-10T07:38:55;56.97;;;24.33;;
39846;SDS011;25517;52.422;10.782;2024-01-10T07:41:22;58.05;;;24.55;;
39846;SDS011;25517;52.422;10.782;2024-01-10T07:43:47;62.00;;;25.48;;
39846;SDS011;25517;52.422;10.782;2024-01-10T07:46:13;54.72;;;23.20;;
39846;SDS011;25517;52.422;10.782;2024-01-10T07:48:39;62.03;;;24.88;;
39846;SDS011;25517;52.422;10.782;2024-01-10T07:51:05;60.60;;;24.63;;
39846;SDS011;25517;52.422;10.782;2024-01-10T07:53:31;61.28;;;24.90;;
39846;SDS011;25517;52.422;10.782;2024-01-10T07:55:56;60.45;;;24.10;;
39846;SDS011;25517;52.422;10.782;2024-01-10T07:58:22;58.92;;;25.20;;
39846;SDS011;25517;52.422;10.782;2024-01-10T08:00:47;64.22;;;24.02;;
39846;SDS011;25517;52.422;10.782;2024-01-10T08:03:13;68.38;;;27.10;;
39846;SDS011;25517;52.422;10.782;2024-01-10T08:05:38;65.50;;;26.80;;
39846;SDS011;25517;52.422;10.782;2024-01-10T08:08:04;54.80;;;23.58;;
39846;SDS011;25517;52.422;10.782;2024-01-10T08:10:30;59.63;;;24.38;;
39846;SDS011;25517;52.422;10.782;2024-01-10T08:12:55;70.32;;;27.13;;
39846;SDS011;25517;52.422;10.782;2024-01-10T08:15:21;65.15;;;27.10;;
39846;SDS011;25517;52.422;10.782;2024-01-10T08:17:47;58.20;;;25.90;;
39846;SDS011;25517;52.422;10.782;2024-01-10T08:20:13;52.35;;;22.15;;
39846;SDS011;25517;52.422;10.782;2024-01-10T08:22:40;61.13;;;26.08;;
39846;SDS011;25517;52.422;10.782;2024-01-10T08:25:06;60.00;;;26.38;;
39846;SDS011;25517;52.422;10.782;2024-01-10T08:27:32;76.20;;;27.20;;
39846;SDS011;25517;52.422;10.782;2024-01-10T08:29:58;60.35;;;24.88;;
39846;SDS011;25517;52.422;10.782;2024-01-10T08:32:24;64.60;;;26.60;;
39846;SDS011;25517;52.422;10.782;2024-01-10T08:34:50;64.10;;;27.77;;
39846;SDS011;25517;52.422;10.782;2024-01-10T08:37:17;70.53;;;27.25;;
39846;SDS011;25517;52.422;10.782;2024-01-10T08:39:43;60.15;;;23.52;;
39846;SDS011;25517;52.422;10.782;2024-01-10T08:42:09;58.83;;;24.88;;
39846;SDS011;25517;52.422;10.782;2024-01-10T08:44:35;67.72;;;26.88;;
39846;SDS011;25517;52.422;10.782;2024-01-10T08:47:00;76.57;;;28.80;;
39846;SDS011;25517;52.422;10.782;2024-01-10T08:49:26;69.72;;;26.92;;
39846;SDS011;25517;52.422;10.782;2024-01-10T08:51:52;65.13;;;27.42;;
39846;SDS011;25517;52.422;10.782;2024-01-10T08:54:18;79.93;;;26.88;;
39846;SDS011;25517;52.422;10.782;2024-01-10T08:56:47;65.75;;;25.50;;
39846;SDS011;25517;52.422;10.782;2024-01-10T08:59:13;69.60;;;27.38;;
39846;SDS011;25517;52.422;10.782;2024-01-10T09:01:38;79.45;;;31.40;;
39846;SDS011;25517;52.422;10.782;2024-01-10T09:04:04;62.28;;;26.17;;
39846;SDS011;25517;52.422;10.782;2024-01-10T09:06:33;66.82;;;27.83;;
39846;SDS011;25517;52.422;10.782;2024-01-10T09:11:26;71.35;;;27.20;;
39846;SDS011;25517;52.422;10.782;2024-01-10T09:13:51;64.50;;;26.50;;
39846;SDS011;25517;52.422;10.782;2024-01-10T09:16:17;74.50;;;30.48;;
39846;SDS011;25517;52.422;10.782;2024-01-10T09:18:45;71.32;;;28.70;;
39846;SDS011;25517;52.422;10.782;2024-01-10T09:21:11;81.53;;;30.92;;
39846;SDS011;25517;52.422;10.782;2024-01-10T09:23:37;79.68;;;32.10;;
39846;SDS011;25517;52.422;10.782;2024-01-10T09:26:02;69.45;;;27.35;;
39846;SDS011;25517;52.422;10.782;2024-01-10T09:28:28;82.95;;;31.42;;
39846;SDS011;25517;52.422;10.782;2024-01-10T09:30:54;76.07;;;28.55;;
39846;SDS011;25517;52.422;10.782;2024-01-10T09:33:20;75.38;;;31.20;;
39846;SDS011;25517;52.422;10.782;2024-01-10T09:35:46;81.13;;;32.55;;
39846;SDS011;25517;52.422;10.782;2024-01-10T09:38:12;74.32;;;32.10;;
39846;SDS011;25517;52.422;10.782;2024-01-10T09:40:37;74.03;;;31.52;;
39846;SDS011;25517;52.422;10.782;2024-01-10T09:43:04;83.10;;;31.75;;
39846;SDS011;25517;52.422;10.782;2024-01-10T09:45:30;79.93;;;33.70;;
39846;SDS011;25517;52.422;10.782;2024-01-10T09:47:59;69.13;;;31.73;;
39846;SDS011;25517;52.422;10.782;2024-01-10T09:50:25;81.00;;;32.55;;
39846;SDS011;25517;52.422;10.782;2024-01-10T09:52:52;78.03;;;32.70;;
39846;SDS011;25517;52.422;10.782;2024-01-10T09:55:22;87.90;;;33.78;;
39846;SDS011;25517;52.422;10.782;2024-01-10T09:57:48;75.43;;;31.88;;
39846;SDS011;25517;52.422;10.782;2024-01-10T10:00:14;71.80;;;31.98;;
39846;SDS011;25517;52.422;10.782;2024-01-10T10:02:41;80.45;;;35.45;;
39846;SDS011;25517;52.422;10.782;2024-01-10T10:05:14;75.80;;;34.28;;
39846;SDS011;25517;52.422;10.782;2024-01-10T10:10:09;80.30;;;33.65;;
39846;SDS011;25517;52.422;10.782;2024-01-10T10:12:45;77.22;;;33.22;;
39846;SDS011;25517;52.422;10.782;2024-01-10T10:15:17;86.30;;;35.10;;
39846;SDS011;25517;52.422;10.782;2024-01-10T10:17:46;80.60;;;32.10;;
39846;SDS011;25517;52.422;10.782;2024-01-10T10:20:34;89.10;;;33.97;;
39846;SDS011;25517;52.422;10.782;2024-01-10T10:23:05;87.10;;;34.80;;
39846;SDS011;25517;52.422;10.782;2024-01-10T10:27:57;72.07;;;31.20;;
39846;SDS011;25517;52.422;10.782;2024-01-10T10:30:23;81.22;;;33.00;;
39846;SDS011;25517;52.422;10.782;2024-01-10T10:32:49;90.85;;;36.40;;
39846;SDS011;25517;52.422;10.782;2024-01-10T10:35:15;73.45;;;31.48;;
39846;SDS011;25517;52.422;10.782;2024-01-10T10:37:43;83.45;;;34.67;;
39846;SDS011;25517;52.422;10.782;2024-01-10T10:40:09;71.57;;;31.42;;
39846;SDS011;25517;52.422;10.782;2024-01-10T10:42:35;78.95;;;32.42;;
39846;SDS011;25517;52.422;10.782;2024-01-10T10:45:07;89.57;;;35.75;;
39846;SDS011;25517;52.422;10.782;2024-01-10T10:47:36;74.57;;;33.80;;
39846;SDS011;25517;52.422;10.782;2024-01-10T10:50:04;75.75;;;34.95;;
39846;SDS011;25517;52.422;10.782;2024-01-10T10:52:31;69.47;;;33.85;;
39846;SDS011;25517;52.422;10.782;2024-01-10T10:54:58;64.63;;;32.90;;
39846;SDS011;25517;52.422;10.782;2024-01-10T10:57:26;61.55;;;33.72;;
39846;SDS011;25517;52.422;10.782;2024-01-10T10:59:53;58.33;;;34.00;;
39846;SDS011;25517;52.422;10.782;2024-01-10T11:02:22;66.10;;;36.25;;
39846;SDS011;25517;52.422;10.782;2024-01-10T11:04:52;60.10;;;34.88;;
39846;SDS011;25517;52.422;10.782;2024-01-10T11:07:19;57.13;;;33.30;;
39846;SDS011;25517;52.422;10.782;2024-01-10T11:09:45;56.03;;;34.67;;
39846;SDS011;25517;52.422;10.782;2024-01-10T11:25:49;57.45;;;33.97;;
39846;SDS011;25517;52.422;10.782;2024-01-10T11:28:15;54.15;;;33.88;;
39846;SDS011;25517;52.422;10.782;2024-01-10T11:30:48;52.75;;;32.60;;
39846;SDS011;25517;52.422;10.782;2024-01-10T11:33:23;53.50;;;33.20;;
39846;SDS011;25517;52.422;10.782;2024-01-10T11:36:11;52.72;;;35.10;;
39846;SDS011;25517;52.422;10.782;2024-01-10T11:38:41;52.70;;;32.63;;
39846;SDS011;25517;52.422;10.782;2024-01-10T11:41:26;54.72;;;33.88;;
39846;SDS011;25517;52.422;10.782;2024-01-10T11:46:43;52.60;;;33.80;;
39846;SDS011;25517;52.422;10.782;2024-01-10T11:49:09;58.83;;;34.15;;
39846;SDS011;25517;52.422;10.782;2024-01-10T11:51:36;57.80;;;32.58;;
39846;SDS011;25517;52.422;10.782;2024-01-10T11:54:02;60.78;;;33.35;;
39846;SDS011;25517;52.422;10.782;2024-01-10T11:56:40;59.60;;;33.65;;
39846;SDS011;25517;52.422;10.782;2024-01-10T11:59:10;62.83;;;33.20;;
39846;SDS011;25517;52.422;10.782;2024-01-10T12:01:38;57.72;;;29.88;;
39846;SDS011;25517;52.422;10.782;2024-01-10T12:04:05;65.57;;;33.55;;
39846;SDS011;25517;52.422;10.782;2024-01-10T12:06:31;58.90;;;30.65;;
39846;SDS011;25517;52.422;10.782;2024-01-10T12:08:59;61.72;;;29.90;;
39846;SDS011;25517;52.422;10.782;2024-01-10T12:11:28;64.28;;;30.20;;
39846;SDS011;25517;52.422;10.782;2024-01-10T12:13:54;60.50;;;27.85;;
39846;SDS011;25517;52.422;10.782;2024-01-10T12:16:19;57.88;;;27.23;;
39846;SDS011;25517;52.422;10.782;2024-01-10T12:18:48;62.03;;;28.50;;
39846;SDS011;25517;52.422;10.782;2024-01-10T12:21:13;64.30;;;29.88;;
39846;SDS011;25517;52.422;10.782;2024-01-10T12:23:39;70.80;;;29.17;;
39846;SDS011;25517;52.422;10.782;2024-01-10T12:26:07;60.80;;;28.05;;
39846;SDS011;25517;52.422;10.782;2024-01-10T12:28:37;57.33;;;28.08;;
39846;SDS011;25517;52.422;10.782;2024-01-10T12:31:04;67.70;;;27.83;;
39846;SDS011;25517;52.422;10.782;2024-01-10T12:33:30;64.00;;;29.17;;
39846;SDS011;25517;52.422;10.782;2024-01-10T12:38:33;67.35;;;28.35;;
39846;SDS011;25517;52.422;10.782;2024-01-10T12:40:59;62.88;;;28.65;;
39846;SDS011;25517;52.422;10.782;2024-01-10T12:43:25;71.15;;;30.05;;
39846;SDS011;25517;52.422;10.782;2024-01-10T12:48:30;68.32;;;28.40;;
39846;SDS011;25517;52.422;10.782;2024-01-10T12:50:56;59.25;;;25.75;;
39846;SDS011;25517;52.422;10.782;2024-01-10T12:53:25;63.63;;;28.98;;
39846;SDS011;25517;52.422;10.782;2024-01-10T12:55:53;62.75;;;27.23;;
39846;SDS011;25517;52.422;10.782;2024-01-10T12:58:19;60.45;;;25.85;;
39846;SDS011;25517;52.422;10.782;2024-01-10T13:00:45;59.35;;;26.42;;
39846;SDS011;25517;52.422;10.782;2024-01-10T13:03:11;72.82;;;28.55;;
39846;SDS011;25517;52.422;10.782;2024-01-10T13:05:37;60.45;;;26.20;;
39846;SDS011;25517;52.422;10.782;2024-01-10T13:08:03;64.30;;;26.88;;
39846;SDS011;25517;52.422;10.782;2024-01-10T13:10:30;62.95;;;25.92;;
39846;SDS011;25517;52.422;10.782;2024-01-10T13:12:56;55.28;;;26.60;;
39846;SDS011;25517;52.422;10.782;2024-01-10T13:15:22;65.63;;;28.63;;
39846;SDS011;25517;52.422;10.782;2024-01-10T13:17:47;57.83;;;25.92;;
39846;SDS011;25517;52.422;10.782;2024-01-10T13:20:13;53.35;;;24.63;;
39846;SDS011;25517;52.422;10.782;2024-01-10T13:22:38;53.15;;;24.73;;
39846;SDS011;25517;52.422;10.782;2024-01-10T13:25:04;62.45;;;25.73;;
39846;SDS011;25517;52.422;10.782;2024-01-10T13:27:30;58.72;;;25.50;;
39846;SDS011;25517;52.422;10.782;2024-01-10T13:29:57;58.55;;;26.40;;
39846;SDS011;25517;52.422;10.782;2024-01-10T13:32:22;75.97;;;30.38;;
39846;SDS011;25517;52.422;10.782;2024-01-10T13:34:48;61.95;;;27.95;;
39846;SDS011;25517;52.422;10.782;2024-01-10T13:37:14;61.97;;;28.55;;
39846;SDS011;25517;52.422;10.782;2024-01-10T13:39:42;58.00;;;26.52;;
39846;SDS011;25517;52.422;10.782;2024-01-10T13:42:08;57.05;;;27.10;;
39846;SDS011;25517;52.422;10.782;2024-01-10T13:44:37;60.63;;;26.50;;
39846;SDS011;25517;52.422;10.782;2024-01-10T13:47:03;63.63;;;28.05;;
39846;SDS011;25517;52.422;10.782;2024-01-10T13:49:29;57.33;;;25.55;;
39846;SDS011;25517;52.422;10.782;2024-01-10T13:51:55;60.47;;;27.27;;
39846;SDS011;25517;52.422;10.782;2024-01-10T13:54:20;57.35;;;24.27;;
39846;SDS011;25517;52.422;10.782;2024-01-10T13:56:46;56.40;;;24.85;;
39846;SDS011;25517;52.422;10.782;2024-01-10T13:59:12;61.83;;;24.42;;
39846;SDS011;25517;52.422;10.782;2024-01-10T14:01:38;50.78;;;24.23;;
39846;SDS011;25517;52.422;10.782;2024-01-10T14:04:05;59.45;;;26.77;;
39846;SDS011;25517;52.422;10.782;2024-01-10T14:06:30;59.00;;;26.38;;
39846;SDS011;25517;52.422;10.782;2024-01-10T14:08:56;59.53;;;25.27;;
39846;SDS011;25517;52.422;10.782;2024-01-10T14:11:22;61.88;;;24.17;;
39846;SDS011;25517;52.422;10.782;2024-01-10T14:13:49;61.80;;;26.75;;
39846;SDS011;25517;52.422;10.782;2024-01-10T14:16:17;60.42;;;25.15;;
39846;SDS011;25517;52.422;10.782;2024-01-10T14:18:43;59.47;;;24.67;;
39846;SDS011;25517;52.422;10.782;2024-01-10T14:21:08;54.38;;;23.85;;
39846;SDS011;25517;52.422;10.782;2024-01-10T14:23:34;62.47;;;25.70;;
39846;SDS011;25517;52.422;10.782;2024-01-10T14:26:00;57.40;;;24.73;;
39846;SDS011;25517;52.422;10.782;2024-01-10T14:28:26;58.78;;;25.55;;
39846;SDS011;25517;52.422;10.782;2024-01-10T14:30:51;62.47;;;26.17;;
39846;SDS011;25517;52.422;10.782;2024-01-10T14:33:17;57.17;;;25.75;;